Time;durP1;ratioP1;P1;durP2;ratioP2;P2;SDS_P1;SDS_P2;PMS_P1;PMS_P2;Temp;Humidity;BMP_temperature;BMP_pressure;BME280_temperature;BME280_humidity;BME280_pressure;Samples;Min_cycle;Max_cycle;Signal;HPM_P1;HPM_P2
2021/12/28 00:00:06;;;;;;;3.15;2.80;;;8.40;99.90;;;;;;5050369;28;20214;-80
2021/12/28 00:02:34;;;;;;;0.50;0.40;;;8.40;99.90;;;;;;5049596;28;20226;-80
2021/12/28 00:05:01;;;;;;;0.55;0.52;;;8.40;99.90;;;;;;5049448;28;20690;-80
2021/12/28 00:07:28;;;;;;;0.40;0.40;;;8.40;99.90;;;;;;5049812;28;20197;-80
2021/12/28 00:09:55;;;;;;;0.40;0.30;;;8.40;99.90;;;;;;5048931;28;20228;-80
2021/12/28 00:12:22;;;;;;;3.08;2.88;;;8.40;99.90;;;;;;5050538;28;20198;-80
2021/12/28 00:15:02;;;;;;;0.40;0.30;;;8.50;99.90;;;;;;5049137;28;20197;-80
2021/12/28 00:20:14;;;;;;;0.82;0.82;;;8.40;99.90;;;;;;5051107;28;20266;-80
2021/12/28 00:22:41;;;;;;;0.63;0.63;;;8.40;99.90;;;;;;5049098;28;20222;-78
2021/12/28 00:25:10;;;;;;;0.40;0.30;;;8.40;99.90;;;;;;5048564;28;20190;-80
2021/12/28 00:27:37;;;;;;;0.50;0.50;;;8.30;99.90;;;;;;5051594;28;20190;-81
2021/12/28 00:30:05;;;;;;;1.15;0.80;;;8.30;99.90;;;;;;5049581;28;20201;-80
2021/12/28 00:32:32;;;;;;;1.35;1.23;;;8.30;99.90;;;;;;5050107;28;20200;-80
2021/12/28 00:34:58;;;;;;;0.60;0.60;;;8.30;99.90;;;;;;5049539;28;20206;-80
2021/12/28 00:37:26;;;;;;;1.25;0.57;;;8.30;99.90;;;;;;5049533;28;20200;-80
2021/12/28 00:39:53;;;;;;;0.50;0.40;;;8.30;99.90;;;;;;5048921;28;20233;-79
2021/12/28 00:42:20;;;;;;;0.40;0.40;;;8.30;99.90;;;;;;5050009;28;20236;-80
2021/12/28 00:44:47;;;;;;;2.95;1.10;;;8.20;99.90;;;;;;5048280;28;20195;-80
2021/12/28 00:47:14;;;;;;;0.40;0.30;;;8.30;99.90;;;;;;5047037;28;20198;-80
2021/12/28 00:49:41;;;;;;;0.40;0.30;;;8.30;99.90;;;;;;5048272;28;20226;-80
2021/12/28 00:52:08;;;;;;;0.40;0.30;;;8.20;99.90;;;;;;5047648;28;20207;-80
2021/12/28 00:54:36;;;;;;;0.63;0.60;;;8.20;99.90;;;;;;5046946;28;20199;-80
2021/12/28 00:57:04;;;;;;;0.95;0.50;;;8.20;99.90;;;;;;5047093;28;20187;-80
2021/12/28 00:59:31;;;;;;;0.40;0.30;;;8.20;99.90;;;;;;5040664;28;20253;-80
2021/12/28 01:01:57;;;;;;;0.40;0.30;;;8.20;99.90;;;;;;5040110;28;20220;-80
2021/12/28 01:04:25;;;;;;;0.40;0.30;;;8.20;99.90;;;;;;5039915;28;20196;-80
2021/12/28 01:06:52;;;;;;;0.40;0.30;;;8.10;99.90;;;;;;5039971;28;20288;-80
2021/12/28 01:09:19;;;;;;;0.40;0.30;;;8.20;99.90;;;;;;5038668;28;20222;-80
2021/12/28 01:11:47;;;;;;;0.40;0.30;;;8.10;99.90;;;;;;5039170;28;20683;-79
2021/12/28 01:14:14;;;;;;;1.35;1.35;;;8.10;99.90;;;;;;5039591;28;20265;-80
2021/12/28 01:16:40;;;;;;;0.77;0.77;;;8.10;99.90;;;;;;5038880;28;20208;-80
2021/12/28 01:19:08;;;;;;;0.40;0.38;;;8.00;99.90;;;;;;5038705;28;20217;-80
2021/12/28 01:21:35;;;;;;;0.93;0.50;;;8.10;99.90;;;;;;5039567;28;20279;-80
2021/12/28 01:24:01;;;;;;;0.47;0.40;;;8.20;99.90;;;;;;5039940;28;20199;-79
2021/12/28 01:26:28;;;;;;;0.40;0.40;;;8.10;99.90;;;;;;5039082;28;20572;-80
2021/12/28 01:28:56;;;;;;;0.40;0.40;;;8.10;99.90;;;;;;5038288;28;20226;-80
2021/12/28 01:31:23;;;;;;;0.40;0.30;;;8.10;99.90;;;;;;5039408;28;20192;-80
2021/12/28 01:33:50;;;;;;;0.40;0.30;;;8.10;99.90;;;;;;5038510;28;20212;-80
2021/12/28 01:36:17;;;;;;;0.95;0.95;;;8.10;99.90;;;;;;5039201;28;20194;-80
2021/12/28 01:38:44;;;;;;;1.48;1.40;;;8.10;99.90;;;;;;5038134;28;20229;-79
2021/12/28 01:41:11;;;;;;;0.40;0.30;;;8.10;99.90;;;;;;5038310;28;20199;-80
2021/12/28 01:43:39;;;;;;;0.40;0.30;;;8.10;99.90;;;;;;5037673;28;20238;-80
2021/12/28 01:46:08;;;;;;;0.40;0.30;;;8.10;99.90;;;;;;5037244;28;20632;-80
2021/12/28 01:48:37;;;;;;;0.45;0.43;;;8.10;99.90;;;;;;5039001;28;20211;-79
2021/12/28 01:51:07;;;;;;;20.02;1.20;;;8.10;99.90;;;;;;5039458;28;20208;-80
2021/12/28 01:53:34;;;;;;;0.40;0.40;;;8.10;99.90;;;;;;5037122;28;20202;-79
2021/12/28 01:56:06;;;;;;;0.40;0.30;;;8.20;99.90;;;;;;5036466;28;20206;-80
2021/12/28 01:58:32;;;;;;;0.93;0.60;;;8.20;99.90;;;;;;5037854;28;20221;-80
2021/12/28 02:01:00;;;;;;;0.50;0.50;;;8.20;99.90;;;;;;5036882;28;20202;-80
2021/12/28 02:03:30;;;;;;;0.40;0.40;;;8.20;99.90;;;;;;5036072;28;20273;-80
2021/12/28 02:05:57;;;;;;;0.60;0.60;;;8.20;99.90;;;;;;5037079;28;20187;-80
2021/12/28 02:08:24;;;;;;;0.50;0.40;;;8.30;99.90;;;;;;5037453;28;20221;-79
2021/12/28 02:10:55;;;;;;;0.70;0.65;;;8.30;99.90;;;;;;5036287;28;20205;-80
2021/12/28 02:13:23;;;;;;;0.40;0.30;;;8.40;99.90;;;;;;5037466;28;20179;-80
2021/12/28 02:15:50;;;;;;;0.40;0.32;;;8.50;99.90;;;;;;5036372;28;20213;-79
2021/12/28 02:18:23;;;;;;;0.40;0.40;;;8.40;99.90;;;;;;5037407;28;20218;-80
2021/12/28 02:20:52;;;;;;;0.40;0.30;;;8.50;99.90;;;;;;5036889;28;20209;-80
2021/12/28 02:23:19;;;;;;;1.50;1.50;;;8.50;99.90;;;;;;5040882;28;20238;-80
2021/12/28 02:25:47;;;;;;;0.40;0.30;;;8.60;99.90;;;;;;5040882;28;20199;-79
2021/12/28 02:28:15;;;;;;;16.38;15.38;;;8.60;99.90;;;;;;5040994;28;20228;-79
2021/12/28 02:30:44;;;;;;;0.40;0.30;;;8.60;99.90;;;;;;5040145;28;20202;-80
2021/12/28 02:33:11;;;;;;;0.60;0.57;;;8.70;99.90;;;;;;5040491;28;20195;-80
2021/12/28 02:35:38;;;;;;;0.40;0.30;;;8.70;99.90;;;;;;5041837;28;20195;-80
2021/12/28 02:38:09;;;;;;;0.40;0.30;;;8.70;99.90;;;;;;5040973;28;20226;-80
2021/12/28 02:40:37;;;;;;;2.15;1.67;;;8.80;99.90;;;;;;5056787;22;20235;-78
2021/12/28 02:43:07;;;;;;;0.50;0.40;;;8.80;99.90;;;;;;5053799;28;20222;-79
2021/12/28 02:45:36;;;;;;;0.40;0.30;;;8.80;99.90;;;;;;5055296;28;20635;-78
2021/12/28 02:48:03;;;;;;;1.13;1.13;;;8.80;99.90;;;;;;5054684;28;20201;-79
2021/12/28 02:50:33;;;;;;;6.50;1.85;;;8.80;99.90;;;;;;5054687;28;20221;-79
2021/12/28 02:53:00;;;;;;;0.75;0.75;;;8.80;99.90;;;;;;5055252;28;21062;-79
2021/12/28 02:55:30;;;;;;;0.40;0.40;;;8.80;99.90;;;;;;5055086;28;20224;-78
2021/12/28 02:57:59;;;;;;;0.40;0.30;;;8.90;99.90;;;;;;5054770;28;20202;-78
2021/12/28 03:00:34;;;;;;;0.40;0.30;;;8.90;99.90;;;;;;5054583;28;20221;-77
2021/12/28 03:03:06;;;;;;;0.40;0.30;;;8.90;99.90;;;;;;5054702;28;20218;-78
2021/12/28 03:05:33;;;;;;;1.33;1.25;;;8.90;99.90;;;;;;5055372;28;20190;-78
2021/12/28 03:08:00;;;;;;;0.95;0.85;;;9.00;99.90;;;;;;5055003;28;20198;-79
2021/12/28 03:10:28;;;;;;;0.40;0.40;;;9.00;99.90;;;;;;5054494;28;20219;-78
2021/12/28 03:12:55;;;;;;;0.40;0.38;;;9.00;99.90;;;;;;5054554;28;20193;-79
2021/12/28 03:15:22;;;;;;;0.68;0.68;;;9.00;99.90;;;;;;5054467;28;20198;-79
2021/12/28 03:17:49;;;;;;;0.40;0.30;;;9.00;99.90;;;;;;5054754;28;20204;-79
2021/12/28 03:20:18;;;;;;;0.40;0.40;;;9.00;99.90;;;;;;5053730;28;20244;-77
2021/12/28 03:22:45;;;;;;;1.48;0.85;;;9.00;99.90;;;;;;5054204;28;20222;-79
2021/12/28 03:25:13;;;;;;;1.05;0.95;;;9.00;99.90;;;;;;5054993;28;20193;-78
2021/12/28 03:27:42;;;;;;;0.60;0.55;;;9.00;99.90;;;;;;5054773;28;20197;-79
2021/12/28 03:30:11;;;;;;;0.63;0.63;;;9.00;99.90;;;;;;5054117;28;20223;-77
2021/12/28 03:32:38;;;;;;;0.40;0.30;;;9.00;99.90;;;;;;5053520;28;20197;-78
2021/12/28 03:35:07;;;;;;;0.85;0.85;;;9.00;99.90;;;;;;5053802;28;20197;-78
2021/12/28 03:37:34;;;;;;;0.40;0.30;;;9.00;99.90;;;;;;5054546;28;20202;-78
2021/12/28 03:40:03;;;;;;;0.40;0.30;;;9.00;99.90;;;;;;5053685;28;20232;-78
2021/12/28 03:42:30;;;;;;;0.40;0.30;;;9.00;99.90;;;;;;5053628;28;20591;-78
2021/12/28 03:44:58;;;;;;;0.40;0.40;;;9.00;99.90;;;;;;5053941;28;20201;-78
2021/12/28 03:47:25;;;;;;;0.40;0.30;;;9.00;99.90;;;;;;5053505;28;20193;-78
2021/12/28 03:49:52;;;;;;;0.40;0.40;;;9.10;99.90;;;;;;5053891;28;20228;-75
2021/12/28 03:52:19;;;;;;;0.40;0.30;;;9.10;99.90;;;;;;5054967;28;20194;-80
2021/12/28 03:54:45;;;;;;;0.40;0.30;;;9.10;99.90;;;;;;5055757;28;20208;-80
2021/12/28 03:57:12;;;;;;;0.40;0.30;;;9.10;99.90;;;;;;5055115;28;20204;-80
2021/12/28 03:59:39;;;;;;;0.40;0.40;;;9.10;99.90;;;;;;5055324;28;20215;-80
2021/12/28 04:02:07;;;;;;;3.60;0.93;;;9.10;99.90;;;;;;5054985;28;20721;-79
2021/12/28 04:04:34;;;;;;;0.40;0.30;;;9.10;99.90;;;;;;5055580;28;20200;-81
2021/12/28 04:07:05;;;;;;;0.40;0.30;;;9.10;99.90;;;;;;5055322;28;20602;-80
2021/12/28 04:12:23;;;;;;;0.95;0.63;;;9.10;99.90;;;;;;5044318;28;20244;-80
2021/12/28 04:14:50;;;;;;;0.40;0.40;;;9.10;99.90;;;;;;5055331;28;20202;-79
2021/12/28 04:17:19;;;;;;;0.50;0.50;;;9.00;99.90;;;;;;5054842;28;20208;-79
2021/12/28 04:19:45;;;;;;;2.70;0.40;;;9.00;99.90;;;;;;5054657;28;20223;-78
2021/12/28 04:22:12;;;;;;;0.40;0.30;;;9.00;99.90;;;;;;5055628;28;20224;-79
2021/12/28 04:24:39;;;;;;;3.15;1.05;;;9.00;99.90;;;;;;5054797;28;20207;-79
2021/12/28 04:27:06;;;;;;;0.40;0.40;;;9.10;99.90;;;;;;5055096;28;20202;-79
2021/12/28 04:29:33;;;;;;;1.35;1.25;;;9.00;99.90;;;;;;5054359;28;20733;-80
2021/12/28 04:31:59;;;;;;;0.40;0.30;;;9.00;99.90;;;;;;5054852;28;20208;-78
2021/12/28 04:34:27;;;;;;;0.88;0.88;;;9.10;99.90;;;;;;5054900;28;20275;-79
2021/12/28 04:36:54;;;;;;;0.40;0.40;;;9.10;99.90;;;;;;5059219;28;20198;-78
2021/12/28 04:39:21;;;;;;;0.40;0.30;;;9.10;99.90;;;;;;5073209;28;20228;-79
2021/12/28 04:41:48;;;;;;;1.45;1.45;;;9.10;99.90;;;;;;5061042;28;20544;-79
2021/12/28 04:44:22;;;;;;;0.40;0.30;;;9.10;99.90;;;;;;5053494;28;20204;-79
2021/12/28 04:46:48;;;;;;;0.40;0.40;;;9.10;99.90;;;;;;5053904;28;20197;-79
2021/12/28 04:49:16;;;;;;;0.40;0.30;;;9.00;99.90;;;;;;5052524;28;20222;-78
2021/12/28 04:51:44;;;;;;;0.40;0.30;;;9.00;99.90;;;;;;5053911;28;20296;-79
2021/12/28 04:54:12;;;;;;;0.40;0.30;;;9.00;99.90;;;;;;5055081;28;20194;-79
2021/12/28 04:56:39;;;;;;;0.40;0.40;;;8.90;99.90;;;;;;5054993;28;20202;-79
2021/12/28 04:59:06;;;;;;;0.40;0.40;;;8.90;99.90;;;;;;5054945;28;20202;-79
2021/12/28 05:01:33;;;;;;;8.13;0.93;;;8.90;99.90;;;;;;5055306;28;20197;-79
2021/12/28 05:04:00;;;;;;;11.88;1.40;;;8.90;99.90;;;;;;5054548;28;20224;-79
2021/12/28 05:06:26;;;;;;;0.40;0.40;;;9.00;99.90;;;;;;5054428;28;20201;-79
2021/12/28 05:08:55;;;;;;;0.40;0.40;;;9.00;99.90;;;;;;5054012;28;20200;-80
2021/12/28 05:11:21;;;;;;;1.35;1.00;;;9.00;99.90;;;;;;5054609;28;20201;-79
2021/12/28 05:13:48;;;;;;;0.50;0.40;;;9.10;99.90;;;;;;5054096;28;20217;-80
2021/12/28 05:16:16;;;;;;;6.00;1.00;;;9.10;99.90;;;;;;5054312;28;20203;-78
2021/12/28 05:18:43;;;;;;;0.40;0.30;;;9.10;99.90;;;;;;5054312;28;20205;-80
2021/12/28 05:21:09;;;;;;;0.40;0.30;;;9.10;99.90;;;;;;5053617;28;20217;-80
2021/12/28 05:23:36;;;;;;;0.40;0.30;;;9.10;99.90;;;;;;5053910;28;20218;-80
2021/12/28 05:26:05;;;;;;;0.43;0.40;;;9.00;99.90;;;;;;5054814;28;20559;-79
2021/12/28 05:28:31;;;;;;;0.40;0.30;;;9.10;99.90;;;;;;5054572;28;20259;-80
2021/12/28 05:30:58;;;;;;;1.30;0.50;;;9.10;99.90;;;;;;5054221;28;20245;-80
2021/12/28 05:33:25;;;;;;;1.85;0.77;;;9.00;99.90;;;;;;5053987;28;20201;-80
2021/12/28 05:35:52;;;;;;;4.88;0.50;;;9.00;99.90;;;;;;5055513;28;20614;-79
2021/12/28 05:38:18;;;;;;;0.40;0.30;;;9.00;99.90;;;;;;5055714;28;20209;-79
2021/12/28 05:40:45;;;;;;;0.40;0.40;;;9.00;99.90;;;;;;5054904;28;20223;-80
2021/12/28 05:43:14;;;;;;;0.40;0.30;;;9.10;99.90;;;;;;5055255;28;20229;-79
2021/12/28 05:45:41;;;;;;;0.40;0.30;;;9.10;99.90;;;;;;5056327;28;20225;-80
2021/12/28 05:48:07;;;;;;;28.05;1.38;;;9.00;99.90;;;;;;5055262;28;20197;-79
2021/12/28 05:50:34;;;;;;;0.77;0.57;;;9.00;99.90;;;;;;5054688;28;20238;-79
2021/12/28 05:53:01;;;;;;;0.40;0.40;;;9.00;99.90;;;;;;5055445;28;20201;-78
2021/12/28 05:55:28;;;;;;;5.97;0.68;;;9.00;99.90;;;;;;5056682;28;20850;-79
2021/12/28 05:57:54;;;;;;;2.05;0.50;;;9.00;99.90;;;;;;5059654;28;20206;-81
2021/12/28 06:00:23;;;;;;;0.40;0.30;;;9.00;99.90;;;;;;5059309;28;20225;-79
2021/12/28 06:02:49;;;;;;;0.40;0.30;;;9.10;99.90;;;;;;5058984;28;20217;-79
2021/12/28 06:05:16;;;;;;;0.43;0.40;;;9.10;99.90;;;;;;5059350;28;20208;-78
2021/12/28 06:07:43;;;;;;;0.40;0.30;;;9.10;99.90;;;;;;5058232;28;20201;-80
2021/12/28 06:10:10;;;;;;;0.40;0.30;;;9.20;99.90;;;;;;5057092;28;20217;-80
2021/12/28 06:12:36;;;;;;;0.40;0.30;;;9.20;99.90;;;;;;5058311;28;20206;-79
2021/12/28 06:15:04;;;;;;;0.50;0.40;;;9.20;99.90;;;;;;5057855;28;20663;-80
2021/12/28 06:17:32;;;;;;;0.40;0.30;;;9.20;99.90;;;;;;5058411;28;20200;-80
2021/12/28 06:19:59;;;;;;;1.10;1.10;;;9.20;99.90;;;;;;5057835;28;20210;-79
2021/12/28 06:22:26;;;;;;;0.40;0.30;;;9.20;99.90;;;;;;5058572;28;20204;-80
2021/12/28 06:24:52;;;;;;;0.40;0.30;;;9.20;99.90;;;;;;5057762;28;20198;-79
2021/12/28 06:27:19;;;;;;;0.40;0.30;;;9.20;99.90;;;;;;5059111;28;20254;-78
2021/12/28 06:29:46;;;;;;;0.40;0.30;;;9.20;99.90;;;;;;5057848;28;20560;-78
2021/12/28 06:32:13;;;;;;;0.60;0.60;;;9.30;99.90;;;;;;5059085;28;20197;-79
2021/12/28 06:34:42;;;;;;;9.75;1.98;;;9.30;99.90;;;;;;5058227;28;20194;-79
2021/12/28 06:37:09;;;;;;;0.40;0.30;;;9.30;99.90;;;;;;5058557;28;20198;-79
2021/12/28 06:39:36;;;;;;;0.40;0.30;;;9.20;99.90;;;;;;5057724;28;20595;-80
2021/12/28 06:42:04;;;;;;;0.60;0.50;;;9.30;99.90;;;;;;5058466;28;20202;-79
2021/12/28 06:44:30;;;;;;;0.40;0.30;;;9.20;99.90;;;;;;5058686;28;20568;-78
2021/12/28 06:46:57;;;;;;;1.77;1.25;;;9.20;99.90;;;;;;5057567;28;20205;-77
2021/12/28 06:49:24;;;;;;;0.40;0.32;;;9.20;99.90;;;;;;5056868;28;20224;-79
2021/12/28 06:51:52;;;;;;;0.40;0.30;;;9.10;99.90;;;;;;5058404;28;20202;-80
2021/12/28 06:54:19;;;;;;;0.40;0.30;;;9.10;99.90;;;;;;5057330;28;20190;-79
2021/12/28 06:56:45;;;;;;;1.75;0.40;;;9.10;99.90;;;;;;5058070;28;20559;-80
2021/12/28 06:59:12;;;;;;;6.68;2.25;;;9.00;99.90;;;;;;5057833;28;20208;-79
2021/12/28 07:01:39;;;;;;;0.40;0.30;;;9.00;99.90;;;;;;5058546;28;20201;-79
2021/12/28 07:04:06;;;;;;;0.43;0.40;;;9.00;99.90;;;;;;5058441;28;20218;-79
2021/12/28 07:06:32;;;;;;;1.27;1.23;;;9.00;99.90;;;;;;5049713;28;20197;-80
2021/12/28 07:09:00;;;;;;;0.45;0.38;;;9.00;99.90;;;;;;5038059;28;20203;-79
2021/12/28 07:11:27;;;;;;;0.80;0.80;;;8.90;99.90;;;;;;5055672;28;20199;-80
2021/12/28 07:13:54;;;;;;;0.40;0.30;;;8.90;99.90;;;;;;5056769;28;20194;-79
2021/12/28 07:16:21;;;;;;;0.40;0.30;;;8.90;99.90;;;;;;5057227;28;20705;-80
2021/12/28 07:18:47;;;;;;;15.40;1.60;;;8.90;99.90;;;;;;5056936;28;20194;-79
2021/12/28 07:21:15;;;;;;;0.50;0.40;;;9.00;99.90;;;;;;5056344;28;20227;-80
2021/12/28 07:23:42;;;;;;;4.57;0.65;;;9.00;99.90;;;;;;5057679;28;20625;-80
2021/12/28 07:26:10;;;;;;;0.40;0.30;;;9.00;99.90;;;;;;5057470;28;20197;-80
2021/12/28 07:28:36;;;;;;;0.40;0.40;;;9.00;99.90;;;;;;5057601;28;20198;-80
2021/12/28 07:31:03;;;;;;;1.45;1.35;;;9.00;99.90;;;;;;5056970;28;20225;-81
2021/12/28 07:33:30;;;;;;;0.40;0.30;;;9.00;99.90;;;;;;5057199;28;20202;-81
2021/12/28 07:35:57;;;;;;;0.40;0.30;;;9.10;99.90;;;;;;5056662;28;20204;-81
2021/12/28 07:38:23;;;;;;;0.40;0.30;;;9.10;99.90;;;;;;5056423;28;20221;-80
2021/12/28 07:40:50;;;;;;;0.40;0.30;;;9.20;99.90;;;;;;5042364;28;20245;-81
2021/12/28 07:43:18;;;;;;;0.40;0.40;;;9.20;99.90;;;;;;5045218;28;20220;-82
2021/12/28 07:45:46;;;;;;;0.40;0.40;;;9.20;99.90;;;;;;5057334;28;20209;-81
2021/12/28 07:48:13;;;;;;;0.40;0.40;;;9.30;99.90;;;;;;5041233;28;20818;-80
2021/12/28 07:50:40;;;;;;;0.40;0.40;;;9.30;99.90;;;;;;5055592;28;20225;-80
2021/12/28 07:53:07;;;;;;;0.40;0.30;;;9.20;99.90;;;;;;5054966;28;20200;-80
2021/12/28 07:55:33;;;;;;;0.40;0.30;;;9.30;99.90;;;;;;5055517;28;20693;-81
2021/12/28 07:58:00;;;;;;;0.40;0.30;;;9.30;99.90;;;;;;5055564;28;20198;-81
2021/12/28 08:00:28;;;;;;;1.48;0.82;;;9.30;99.90;;;;;;5057448;28;20221;-80
2021/12/28 08:02:56;;;;;;;0.40;0.40;;;9.30;99.90;;;;;;5055907;28;20204;-80
2021/12/28 08:05:23;;;;;;;0.40;0.40;;;9.30;99.90;;;;;;5055321;28;20203;-79
2021/12/28 08:07:50;;;;;;;0.65;0.65;;;9.20;99.90;;;;;;5055716;28;20203;-82
2021/12/28 08:10:18;;;;;;;0.50;0.40;;;9.30;99.90;;;;;;5055541;28;20222;-82
2021/12/28 08:12:46;;;;;;;0.50;0.40;;;9.30;99.90;;;;;;5056324;28;20227;-81
2021/12/28 08:15:13;;;;;;;0.40;0.40;;;9.20;99.90;;;;;;5055817;28;20202;-81
2021/12/28 08:17:41;;;;;;;0.50;0.40;;;9.20;99.90;;;;;;5055654;28;20194;-82
2021/12/28 08:20:10;;;;;;;0.60;0.60;;;9.30;99.90;;;;;;5054698;28;20221;-81
2021/12/28 08:22:38;;;;;;;0.40;0.30;;;9.50;99.90;;;;;;5055917;28;20579;-81
2021/12/28 08:25:05;;;;;;;0.82;0.73;;;9.70;99.90;;;;;;5055540;28;20221;-81
2021/12/28 08:27:32;;;;;;;1.25;1.00;;;9.90;99.90;;;;;;5055386;28;20212;-81
2021/12/28 08:29:59;;;;;;;5.90;1.35;;;10.00;99.90;;;;;;5050827;28;20229;-81
2021/12/28 08:32:26;;;;;;;0.40;0.40;;;10.10;99.90;;;;;;5038464;28;20679;-82
2021/12/28 08:34:54;;;;;;;0.40;0.30;;;10.10;99.90;;;;;;5055514;28;20592;-82
2021/12/28 08:37:21;;;;;;;0.40;0.40;;;10.00;99.90;;;;;;5058160;28;20660;-81
2021/12/28 08:39:48;;;;;;;0.95;0.43;;;9.90;99.90;;;;;;5056110;28;20342;-80
2021/12/28 08:42:15;;;;;;;1.40;0.57;;;9.90;99.90;;;;;;5055468;28;20206;-81
2021/12/28 08:44:41;;;;;;;0.50;0.40;;;9.90;99.90;;;;;;5054808;28;20214;-82
2021/12/28 08:47:08;;;;;;;4.80;0.88;;;9.90;99.90;;;;;;5048100;28;20198;-82
2021/12/28 08:49:35;;;;;;;0.40;0.40;;;9.90;99.90;;;;;;5035182;28;20239;-82
2021/12/28 08:52:04;;;;;;;0.40;0.30;;;9.90;99.90;;;;;;5034681;28;20223;-80
2021/12/28 08:54:31;;;;;;;1.02;0.93;;;9.90;99.90;;;;;;5034351;28;20580;-82
2021/12/28 08:56:58;;;;;;;0.50;0.40;;;9.90;99.90;;;;;;5034747;28;20200;-82
2021/12/28 08:59:25;;;;;;;0.40;0.30;;;9.90;99.90;;;;;;5033964;28;20252;-83
2021/12/28 09:01:51;;;;;;;0.90;0.50;;;9.90;99.90;;;;;;5033069;28;20209;-80
2021/12/28 09:04:19;;;;;;;0.50;0.47;;;9.90;99.90;;;;;;5046494;28;20218;-83
2021/12/28 09:06:46;;;;;;;0.40;0.30;;;10.10;99.90;;;;;;5050319;28;20201;-81
2021/12/28 09:09:15;;;;;;;0.40;0.30;;;10.40;99.90;;;;;;5039135;28;20203;-83
2021/12/28 09:11:42;;;;;;;0.40;0.40;;;11.00;99.90;;;;;;5050065;28;20197;-82
2021/12/28 09:14:09;;;;;;;0.45;0.38;;;11.40;99.90;;;;;;5053466;28;20205;-82
2021/12/28 09:16:36;;;;;;;1.08;0.50;;;11.40;99.90;;;;;;5053989;28;20202;-82
2021/12/28 09:19:04;;;;;;;0.60;0.45;;;11.40;99.90;;;;;;5043544;28;20198;-81
2021/12/28 09:21:30;;;;;;;0.50;0.40;;;11.30;99.90;;;;;;5049433;28;20650;-80
2021/12/28 09:23:57;;;;;;;0.50;0.40;;;11.00;99.90;;;;;;5054344;28;20214;-82
2021/12/28 09:26:25;;;;;;;0.40;0.40;;;10.80;99.90;;;;;;5054310;28;20201;-81
2021/12/28 09:28:52;;;;;;;0.75;0.70;;;10.60;99.90;;;;;;5046062;28;20221;-83
2021/12/28 09:31:19;;;;;;;0.40;0.40;;;10.50;99.90;;;;;;5048679;28;20194;-81
2021/12/28 09:33:46;;;;;;;0.50;0.40;;;10.40;99.90;;;;;;5057201;28;20244;-83
2021/12/28 09:36:15;;;;;;;0.40;0.30;;;10.50;99.90;;;;;;5056730;28;20281;-81
2021/12/28 09:38:43;;;;;;;0.88;0.50;;;10.60;99.90;;;;;;5057493;28;20193;-81
2021/12/28 09:41:10;;;;;;;3.72;0.50;;;10.60;99.90;;;;;;5056494;28;20625;-82
2021/12/28 09:43:38;;;;;;;0.40;0.30;;;10.60;99.90;;;;;;5057589;28;20199;-83
2021/12/28 09:46:05;;;;;;;0.73;0.50;;;10.50;99.90;;;;;;5056647;28;20881;-80
2021/12/28 09:48:32;;;;;;;0.50;0.40;;;10.50;99.90;;;;;;5057924;28;20200;-83
2021/12/28 09:51:00;;;;;;;0.40;0.30;;;10.40;99.90;;;;;;5057254;28;20213;-83
2021/12/28 09:53:28;;;;;;;0.50;0.47;;;10.40;99.90;;;;;;5056900;28;20206;-82
2021/12/28 09:55:54;;;;;;;0.40;0.30;;;10.40;99.90;;;;;;5057186;28;20254;-82
2021/12/28 09:58:21;;;;;;;0.40;0.40;;;10.40;99.90;;;;;;5051832;28;21504;-82
2021/12/28 10:00:49;;;;;;;0.50;0.50;;;10.30;99.90;;;;;;5051823;28;20228;-83
2021/12/28 10:03:16;;;;;;;0.68;0.68;;;10.10;99.90;;;;;;5056770;28;20204;-82
2021/12/28 10:05:44;;;;;;;0.40;0.40;;;10.00;99.90;;;;;;5060419;28;20225;-81
2021/12/28 10:08:13;;;;;;;0.40;0.40;;;9.90;99.90;;;;;;5040651;28;20658;-79
2021/12/28 10:10:44;;;;;;;0.52;0.52;;;9.80;99.90;;;;;;5055922;28;20213;-82
2021/12/28 10:13:19;;;;;;;1.08;0.70;;;9.80;99.90;;;;;;5057160;28;20197;-83
2021/12/28 10:15:47;;;;;;;0.50;0.40;;;9.60;99.90;;;;;;5058476;28;20248;-82
2021/12/28 10:18:16;;;;;;;0.40;0.30;;;9.50;99.90;;;;;;5057311;28;20206;-81
2021/12/28 10:20:44;;;;;;;0.50;0.45;;;9.50;99.90;;;;;;5055875;28;20217;-82
2021/12/28 10:23:13;;;;;;;0.40;0.30;;;9.40;99.90;;;;;;5056030;28;20190;-83
2021/12/28 10:25:42;;;;;;;0.50;0.40;;;9.40;99.90;;;;;;5045515;28;20249;-82
2021/12/28 10:28:10;;;;;;;1.30;0.77;;;9.40;99.90;;;;;;5053396;28;20201;-77
2021/12/28 10:30:41;;;;;;;0.40;0.30;;;9.40;99.90;;;;;;5056133;28;20212;-80
2021/12/28 10:33:10;;;;;;;0.50;0.40;;;9.40;99.90;;;;;;5056607;28;20190;-83
2021/12/28 10:35:41;;;;;;;0.55;0.50;;;9.40;99.90;;;;;;5057034;28;20205;-81
2021/12/28 10:38:11;;;;;;;1.13;1.13;;;9.40;99.90;;;;;;5055841;28;20201;-79
2021/12/28 10:40:41;;;;;;;0.98;0.65;;;9.40;99.90;;;;;;5052229;28;20228;-82
2021/12/28 10:43:09;;;;;;;0.65;0.65;;;9.40;99.90;;;;;;5041727;28;20221;-83
2021/12/28 10:45:39;;;;;;;0.40;0.30;;;9.30;99.90;;;;;;5045683;28;20229;-83
2021/12/28 10:48:14;;;;;;;0.57;0.57;;;9.30;99.90;;;;;;5051006;28;20217;-82
2021/12/28 10:50:45;;;;;;;0.40;0.30;;;9.30;99.90;;;;;;5056468;28;20237;-81
2021/12/28 10:53:19;;;;;;;0.40;0.30;;;9.20;99.90;;;;;;5056558;28;20194;-83
2021/12/28 10:55:48;;;;;;;0.40;0.30;;;9.30;99.90;;;;;;5056232;28;20591;-82
2021/12/28 10:58:28;;;;;;;0.50;0.40;;;9.30;99.90;;;;;;5056847;28;20197;-82
2021/12/28 11:00:55;;;;;;;0.60;0.60;;;9.30;99.90;;;;;;5040402;28;20675;-83
2021/12/28 11:03:33;;;;;;;0.40;0.30;;;9.30;99.90;;;;;;5055910;28;20201;-83
2021/12/28 11:06:07;;;;;;;1.02;0.70;;;9.30;99.90;;;;;;5056073;28;20269;-83
2021/12/28 11:08:34;;;;;;;0.60;0.60;;;9.30;99.90;;;;;;5055921;28;20192;-83
2021/12/28 11:11:05;;;;;;;0.40;0.40;;;9.30;99.90;;;;;;5055373;28;20225;-83
2021/12/28 11:13:33;;;;;;;0.80;0.77;;;9.40;99.90;;;;;;5056505;28;20196;-82
2021/12/28 11:16:01;;;;;;;0.40;0.30;;;9.40;99.90;;;;;;5055019;28;20196;-82
2021/12/28 11:18:31;;;;;;;0.40;0.30;;;9.40;99.90;;;;;;5055514;28;20209;-82
2021/12/28 11:21:00;;;;;;;0.65;0.65;;;9.40;99.90;;;;;;5054927;28;20599;-81
2021/12/28 11:23:30;;;;;;;0.50;0.43;;;9.40;99.90;;;;;;5054705;28;20682;-82
2021/12/28 11:26:08;;;;;;;0.57;0.57;;;9.40;99.90;;;;;;5055016;28;20201;-81
2021/12/28 11:28:35;;;;;;;0.40;0.30;;;9.40;99.90;;;;;;5055009;28;20199;-82
2021/12/28 11:31:11;;;;;;;0.40;0.30;;;9.40;99.90;;;;;;5055570;28;20218;-83
2021/12/28 11:33:43;;;;;;;0.65;0.45;;;9.40;99.90;;;;;;5055078;28;20203;-81
2021/12/28 11:36:11;;;;;;;0.55;0.55;;;9.50;99.90;;;;;;5054710;28;20193;-83
2021/12/28 11:38:39;;;;;;;2.25;2.05;;;9.50;99.90;;;;;;5054393;28;20216;-83
2021/12/28 11:41:07;;;;;;;0.40;0.30;;;9.50;99.90;;;;;;5038795;28;20615;-84
2021/12/28 11:43:34;;;;;;;0.40;0.40;;;9.50;99.90;;;;;;5053044;28;20198;-81
2021/12/28 11:46:01;;;;;;;1.05;0.95;;;9.50;99.90;;;;;;5054438;28;20213;-82
2021/12/28 11:48:29;;;;;;;0.47;0.38;;;9.50;99.90;;;;;;5054831;28;20201;-83
2021/12/28 11:50:55;;;;;;;0.50;0.47;;;9.50;99.90;;;;;;5054837;28;20584;-82
2021/12/28 11:53:23;;;;;;;0.50;0.50;;;9.60;99.90;;;;;;5055257;28;20205;-82
2021/12/28 11:55:51;;;;;;;1.15;1.05;;;9.60;99.90;;;;;;5054818;28;20556;-82
2021/12/28 11:58:18;;;;;;;0.60;0.60;;;9.60;99.90;;;;;;5055084;28;20207;-83
2021/12/28 12:00:45;;;;;;;0.50;0.40;;;9.60;99.90;;;;;;5054674;28;20221;-82
2021/12/28 12:03:34;;;;;;;0.75;0.75;;;9.60;99.90;;;;;;5037955;28;20197;-83
2021/12/28 12:06:01;;;;;;;2.55;1.25;;;9.60;99.90;;;;;;5054672;28;20259;-83
2021/12/28 12:08:28;;;;;;;0.40;0.30;;;9.60;99.90;;;;;;5054632;28;20194;-83
2021/12/28 12:11:04;;;;;;;0.40;0.30;;;9.60;99.90;;;;;;5053934;28;20231;-83
2021/12/28 12:13:32;;;;;;;0.40;0.30;;;9.60;99.90;;;;;;5054675;28;20213;-82
2021/12/28 12:16:01;;;;;;;0.50;0.50;;;9.50;99.90;;;;;;5054929;28;20198;-83
2021/12/28 12:18:30;;;;;;;0.80;0.70;;;9.50;99.90;;;;;;5054483;28;20252;-83
2021/12/28 12:21:03;;;;;;;0.40;0.30;;;9.50;99.90;;;;;;5046513;28;20228;-83
2021/12/28 12:23:41;;;;;;;0.40;0.40;;;9.50;99.90;;;;;;5053912;28;20194;-82
2021/12/28 12:26:12;;;;;;;0.85;0.85;;;9.40;99.90;;;;;;5053689;28;20217;-81
2021/12/28 12:28:46;;;;;;;0.60;0.50;;;9.40;99.90;;;;;;5053631;28;20697;-82
2021/12/28 12:31:24;;;;;;;0.40;0.40;;;9.40;99.90;;;;;;5053069;28;20233;-81
2021/12/28 12:33:50;;;;;;;0.77;0.70;;;9.40;99.90;;;;;;5053685;28;20200;-81
2021/12/28 12:36:22;;;;;;;0.50;0.40;;;9.40;99.90;;;;;;5053113;28;20560;-82
2021/12/28 12:38:49;;;;;;;0.50;0.40;;;9.40;99.90;;;;;;5053852;28;20193;-81
2021/12/28 12:41:19;;;;;;;1.30;0.50;;;9.40;99.90;;;;;;5052976;28;20230;-81
2021/12/28 12:43:49;;;;;;;2.15;0.85;;;9.40;99.90;;;;;;5053694;28;20202;-82
2021/12/28 12:46:25;;;;;;;3.33;1.30;;;9.40;99.90;;;;;;5053432;28;20236;-82
2021/12/28 12:49:11;;;;;;;1.45;1.05;;;9.40;99.90;;;;;;5053357;28;20196;-81
2021/12/28 12:51:44;;;;;;;0.50;0.50;;;9.40;99.90;;;;;;5038073;28;20195;-82
2021/12/28 12:54:19;;;;;;;6.85;4.63;;;9.40;99.90;;;;;;5053729;28;20200;-83
2021/12/28 12:57:10;;;;;;;0.80;0.80;;;9.40;99.90;;;;;;5052913;28;20548;-81
2021/12/28 12:59:41;;;;;;;2.45;0.80;;;9.40;99.90;;;;;;5036957;28;20224;-82
2021/12/28 13:02:09;;;;;;;8.38;0.60;;;9.40;99.90;;;;;;5045086;28;20202;-82
2021/12/28 13:04:48;;;;;;;1.95;1.80;;;9.50;99.90;;;;;;5044900;28;20198;-83